sensor_id;sensor_type;location;lat;lon;timestamp;pressure;altitude;pressure_sealevel;temperature;humidity
42591;BME280;28218;53.342;-6.216;2023-04-30T00:02:02;101636.38;;;13.72;100.00
42591;BME280;28218;53.342;-6.216;2023-04-30T00:04:30;101642.34;;;13.74;100.00
42591;BME280;28218;53.342;-6.216;2023-04-30T00:06:58;101633.56;;;13.73;100.00
42591;BME280;28218;53.342;-6.216;2023-04-30T00:09:27;101633.09;;;13.70;100.00
42591;BME280;28218;53.342;-6.216;2023-04-30T00:11:56;101628.09;;;13.67;100.00
42591;BME280;28218;53.342;-6.216;2023-04-30T00:14:24;101633.72;;;13.64;100.00
42591;BME280;28218;53.342;-6.216;2023-04-30T00:16:53;101621.16;;;13.58;100.00
42591;BME280;28218;53.342;-6.216;2023-04-30T00:19:21;101622.16;;;13.57;100.00
42591;BME280;28218;53.342;-6.216;2023-04-30T00:21:49;101624.31;;;13.53;100.00
42591;BME280;28218;53.342;-6.216;2023-04-30T00:24:17;101625.13;;;13.53;100.00
42591;BME280;28218;53.342;-6.216;2023-04-30T00:26:46;101625.47;;;13.50;100.00
42591;BME280;28218;53.342;-6.216;2023-04-30T00:29:16;101631.41;;;13.52;100.00
42591;BME280;28218;53.342;-6.216;2023-04-30T00:31:44;101614.22;;;13.48;100.00
42591;BME280;28218;53.342;-6.216;2023-04-30T00:34:12;101630.59;;;13.44;100.00
42591;BME280;28218;53.342;-6.216;2023-04-30T00:36:40;101622.13;;;13.40;100.00
42591;BME280;28218;53.342;-6.216;2023-04-30T00:39:09;101620.84;;;13.36;100.00
42591;BME280;28218;53.342;-6.216;2023-04-30T00:41:37;101621.97;;;13.34;100.00
42591;BME280;28218;53.342;-6.216;2023-04-30T00:44:06;101617.00;;;13.30;100.00
42591;BME280;28218;53.342;-6.216;2023-04-30T00:46:36;101617.81;;;13.31;100.00
42591;BME280;28218;53.342;-6.216;2023-04-30T00:49:04;101630.06;;;13.24;100.00
42591;BME280;28218;53.342;-6.216;2023-04-30T00:51:32;101632.03;;;13.22;100.00
42591;BME280;28218;53.342;-6.216;2023-04-30T00:54:02;101622.75;;;13.18;100.00
42591;BME280;28218;53.342;-6.216;2023-04-30T00:56:31;101617.13;;;13.13;100.00
42591;BME280;28218;53.342;-6.216;2023-04-30T00:59:00;101625.38;;;13.10;100.00
42591;BME280;28218;53.342;-6.216;2023-04-30T01:01:28;101628.53;;;13.13;100.00
42591;BME280;28218;53.342;-6.216;2023-04-30T01:03:59;101621.59;;;13.04;100.00
42591;BME280;28218;53.342;-6.216;2023-04-30T01:06:27;101619.75;;;13.04;100.00
42591;BME280;28218;53.342;-6.216;2023-04-30T01:08:56;101621.41;;;13.05;100.00
42591;BME280;28218;53.342;-6.216;2023-04-30T01:11:32;101616.75;;;13.08;100.00
42591;BME280;28218;53.342;-6.216;2023-04-30T01:14:06;101618.09;;;13.12;100.00
42591;BME280;28218;53.342;-6.216;2023-04-30T01:16:42;101611.00;;;13.12;100.00
42591;BME280;28218;53.342;-6.216;2023-04-30T01:19:20;101602.91;;;13.14;100.00
42591;BME280;28218;53.342;-6.216;2023-04-30T01:21:57;101599.25;;;13.15;100.00
42591;BME280;28218;53.342;-6.216;2023-04-30T01:24:42;101600.41;;;13.12;100.00
42591;BME280;28218;53.342;-6.216;2023-04-30T01:27:28;101600.41;;;13.12;100.00
42591;BME280;28218;53.342;-6.216;2023-04-30T01:30:00;101602.72;;;13.15;100.00
42591;BME280;28218;53.342;-6.216;2023-04-30T01:32:30;101601.91;;;13.15;100.00
42591;BME280;28218;53.342;-6.216;2023-04-30T01:34:58;101600.59;;;13.19;100.00
42591;BME280;28218;53.342;-6.216;2023-04-30T01:37:35;101591.00;;;13.18;100.00
42591;BME280;28218;53.342;-6.216;2023-04-30T01:40:22;101587.50;;;13.17;100.00
42591;BME280;28218;53.342;-6.216;2023-04-30T01:42:57;101589.84;;;13.20;100.00
42591;BME280;28218;53.342;-6.216;2023-04-30T01:45:44;101579.44;;;13.19;100.00
42591;BME280;28218;53.342;-6.216;2023-04-30T01:48:23;101577.31;;;13.22;100.00
42591;BME280;28218;53.342;-6.216;2023-04-30T01:51:00;101572.47;;;13.18;100.00
42591;BME280;28218;53.342;-6.216;2023-04-30T01:53:37;101572.28;;;13.11;100.00
42591;BME280;28218;53.342;-6.216;2023-04-30T01:56:10;101559.75;;;13.13;100.00
42591;BME280;28218;53.342;-6.216;2023-04-30T01:58:40;101563.34;;;13.12;100.00
42591;BME280;28218;53.342;-6.216;2023-04-30T02:01:24;101558.25;;;13.11;100.00
42591;BME280;28218;53.342;-6.216;2023-04-30T02:03:53;101559.72;;;13.05;100.00
42591;BME280;28218;53.342;-6.216;2023-04-30T02:06:21;101560.88;;;13.02;100.00
42591;BME280;28218;53.342;-6.216;2023-04-30T02:08:54;101554.25;;;12.98;100.00
42591;BME280;28218;53.342;-6.216;2023-04-30T02:11:25;101550.63;;;12.99;100.00
42591;BME280;28218;53.342;-6.216;2023-04-30T02:13:53;101548.97;;;12.98;100.00
42591;BME280;28218;53.342;-6.216;2023-04-30T02:16:22;101544.66;;;12.97;100.00
42591;BME280;28218;53.342;-6.216;2023-04-30T02:18:51;101544.00;;;12.95;100.00
42591;BME280;28218;53.342;-6.216;2023-04-30T02:21:19;101540.03;;;12.91;100.00
42591;BME280;28218;53.342;-6.216;2023-04-30T02:23:47;101544.50;;;12.91;100.00
42591;BME280;28218;53.342;-6.216;2023-04-30T02:26:15;101546.00;;;12.85;100.00
42591;BME280;28218;53.342;-6.216;2023-04-30T02:28:44;101541.19;;;12.89;100.00
42591;BME280;28218;53.342;-6.216;2023-04-30T02:31:12;101543.34;;;12.85;100.00
42591;BME280;28218;53.342;-6.216;2023-04-30T02:33:41;101535.88;;;12.89;100.00
42591;BME280;28218;53.342;-6.216;2023-04-30T02:36:10;101538.53;;;12.89;100.00
42591;BME280;28218;53.342;-6.216;2023-04-30T02:38:38;101537.56;;;12.90;100.00
42591;BME280;28218;53.342;-6.216;2023-04-30T02:41:06;101538.22;;;12.92;100.00
42591;BME280;28218;53.342;-6.216;2023-04-30T02:43:34;101534.25;;;12.88;100.00
42591;BME280;28218;53.342;-6.216;2023-04-30T02:46:02;101528.13;;;12.87;100.00
42591;BME280;28218;53.342;-6.216;2023-04-30T02:48:30;101524.00;;;12.85;100.00
42591;BME280;28218;53.342;-6.216;2023-04-30T02:51:00;101516.38;;;12.82;100.00
42591;BME280;28218;53.342;-6.216;2023-04-30T02:53:29;101522.19;;;12.85;100.00
42591;BME280;28218;53.342;-6.216;2023-04-30T02:55:58;101514.06;;;12.87;100.00
42591;BME280;28218;53.342;-6.216;2023-04-30T02:58:26;101511.25;;;12.88;100.00
42591;BME280;28218;53.342;-6.216;2023-04-30T03:00:54;101504.81;;;12.91;100.00
42591;BME280;28218;53.342;-6.216;2023-04-30T03:03:23;101505.97;;;12.88;100.00
42591;BME280;28218;53.342;-6.216;2023-04-30T03:05:51;101502.00;;;12.92;100.00
42591;BME280;28218;53.342;-6.216;2023-04-30T03:08:24;101507.16;;;12.94;100.00
42591;BME280;28218;53.342;-6.216;2023-04-30T03:10:52;101504.34;;;12.95;100.00
42591;BME280;28218;53.342;-6.216;2023-04-30T03:13:20;101499.38;;;13.00;100.00
42591;BME280;28218;53.342;-6.216;2023-04-30T03:15:56;101493.91;;;13.02;100.00
42591;BME280;28218;53.342;-6.216;2023-04-30T03:18:25;101504.34;;;13.03;100.00
42591;BME280;28218;53.342;-6.216;2023-04-30T03:20:53;101499.53;;;13.07;100.00
42591;BME280;28218;53.342;-6.216;2023-04-30T03:23:22;101502.03;;;13.09;100.00
42591;BME280;28218;53.342;-6.216;2023-04-30T03:25:52;101505.63;;;13.08;100.00
42591;BME280;28218;53.342;-6.216;2023-04-30T03:28:20;101496.22;;;13.05;100.00
42591;BME280;28218;53.342;-6.216;2023-04-30T03:30:48;101502.53;;;13.04;100.00
42591;BME280;28218;53.342;-6.216;2023-04-30T03:33:16;101505.81;;;13.06;100.00
42591;BME280;28218;53.342;-6.216;2023-04-30T03:35:45;101501.03;;;13.10;100.00
42591;BME280;28218;53.342;-6.216;2023-04-30T03:38:13;101496.06;;;13.15;100.00
42591;BME280;28218;53.342;-6.216;2023-04-30T03:40:41;101490.28;;;13.19;100.00
42591;BME280;28218;53.342;-6.216;2023-04-30T03:43:11;101480.00;;;13.16;100.00
42591;BME280;28218;53.342;-6.216;2023-04-30T03:45:39;101485.66;;;13.13;100.00
42591;BME280;28218;53.342;-6.216;2023-04-30T03:48:07;101485.47;;;13.15;100.00
42591;BME280;28218;53.342;-6.216;2023-04-30T03:50:35;101473.56;;;13.11;100.00
42591;BME280;28218;53.342;-6.216;2023-04-30T03:53:03;101473.06;;;13.07;100.00
42591;BME280;28218;53.342;-6.216;2023-04-30T03:55:32;101471.09;;;13.09;100.00
42591;BME280;28218;53.342;-6.216;2023-04-30T03:58:01;101468.97;;;13.13;100.00
42591;BME280;28218;53.342;-6.216;2023-04-30T04:00:31;101467.78;;;13.15;100.00
42591;BME280;28218;53.342;-6.216;2023-04-30T04:02:59;101468.59;;;13.16;100.00
42591;BME280;28218;53.342;-6.216;2023-04-30T04:05:27;101461.84;;;13.13;100.00
42591;BME280;28218;53.342;-6.216;2023-04-30T04:07:55;101468.97;;;13.13;100.00
42591;BME280;28218;53.342;-6.216;2023-04-30T04:10:23;101469.59;;;13.15;100.00
42591;BME280;28218;53.342;-6.216;2023-04-30T04:12:52;101470.09;;;13.18;100.00
42591;BME280;28218;53.342;-6.216;2023-04-30T04:15:20;101462.81;;;13.20;100.00
42591;BME280;28218;53.342;-6.216;2023-04-30T04:17:49;101465.31;;;13.22;100.00
42591;BME280;28218;53.342;-6.216;2023-04-30T04:20:18;101467.00;;;13.23;100.00
42591;BME280;28218;53.342;-6.216;2023-04-30T04:22:46;101473.25;;;13.22;100.00
42591;BME280;28218;53.342;-6.216;2023-04-30T04:25:14;101463.84;;;13.27;100.00
42591;BME280;28218;53.342;-6.216;2023-04-30T04:27:43;101469.47;;;13.24;100.00
42591;BME280;28218;53.342;-6.216;2023-04-30T04:30:12;101464.47;;;13.21;100.00
42591;BME280;28218;53.342;-6.216;2023-04-30T04:32:40;101470.59;;;13.22;100.00
42591;BME280;28218;53.342;-6.216;2023-04-30T04:35:16;101468.09;;;13.20;100.00
42591;BME280;28218;53.342;-6.216;2023-04-30T04:37:45;101465.31;;;13.22;100.00
42591;BME280;28218;53.342;-6.216;2023-04-30T04:40:13;101462.53;;;13.23;100.00
42591;BME280;28218;53.342;-6.216;2023-04-30T04:42:41;101460.69;;;13.24;100.00
42591;BME280;28218;53.342;-6.216;2023-04-30T04:45:10;101460.34;;;13.19;100.00
42591;BME280;28218;53.342;-6.216;2023-04-30T04:47:38;101456.69;;;13.20;100.00
42591;BME280;28218;53.342;-6.216;2023-04-30T04:50:07;101461.34;;;13.26;100.00
42591;BME280;28218;53.342;-6.216;2023-04-30T04:52:37;101453.41;;;13.26;100.00
42591;BME280;28218;53.342;-6.216;2023-04-30T04:55:06;101460.84;;;13.30;100.00
42591;BME280;28218;53.342;-6.216;2023-04-30T04:57:35;101458.06;;;13.24;100.00
42591;BME280;28218;53.342;-6.216;2023-04-30T05:00:04;101462.66;;;13.30;100.00
42591;BME280;28218;53.342;-6.216;2023-04-30T05:02:34;101463.84;;;13.27;100.00
42591;BME280;28218;53.342;-6.216;2023-04-30T05:05:02;101466.00;;;13.32;100.00
42591;BME280;28218;53.342;-6.216;2023-04-30T05:07:30;101461.53;;;13.33;100.00
42591;BME280;28218;53.342;-6.216;2023-04-30T05:10:00;101460.53;;;13.34;100.00
42591;BME280;28218;53.342;-6.216;2023-04-30T05:12:28;101463.66;;;13.37;100.00
42591;BME280;28218;53.342;-6.216;2023-04-30T05:14:56;101451.06;;;13.39;100.00
42591;BME280;28218;53.342;-6.216;2023-04-30T05:17:25;101461.34;;;13.42;100.00
42591;BME280;28218;53.342;-6.216;2023-04-30T05:19:53;101462.16;;;13.43;100.00
42591;BME280;28218;53.342;-6.216;2023-04-30T05:22:22;101457.88;;;13.42;100.00
42591;BME280;28218;53.342;-6.216;2023-04-30T05:24:50;101465.94;;;13.40;100.00
42591;BME280;28218;53.342;-6.216;2023-04-30T05:27:21;101464.81;;;13.43;100.00
42591;BME280;28218;53.342;-6.216;2023-04-30T05:29:49;101468.78;;;13.47;100.00
42591;BME280;28218;53.342;-6.216;2023-04-30T05:32:18;101472.41;;;13.46;100.00
42591;BME280;28218;53.342;-6.216;2023-04-30T05:34:46;101467.59;;;13.49;100.00
42591;BME280;28218;53.342;-6.216;2023-04-30T05:37:14;101466.94;;;13.47;100.00
42591;BME280;28218;53.342;-6.216;2023-04-30T05:39:45;101463.97;;;13.50;100.00
42591;BME280;28218;53.342;-6.216;2023-04-30T05:42:13;101465.25;;;13.54;100.00
42591;BME280;28218;53.342;-6.216;2023-04-30T05:44:43;101456.34;;;13.55;100.00
42591;BME280;28218;53.342;-6.216;2023-04-30T05:47:11;101457.81;;;13.58;100.00
42591;BME280;28218;53.342;-6.216;2023-04-30T05:49:39;101465.09;;;13.56;100.00
42591;BME280;28218;53.342;-6.216;2023-04-30T05:52:07;101457.13;;;13.64;100.00
42591;BME280;28218;53.342;-6.216;2023-04-30T05:54:36;101455.78;;;13.68;100.00
42591;BME280;28218;53.342;-6.216;2023-04-30T05:57:05;101464.91;;;13.66;100.00
42591;BME280;28218;53.342;-6.216;2023-04-30T05:59:33;101466.38;;;13.68;100.00
42591;BME280;28218;53.342;-6.216;2023-04-30T06:02:03;101466.06;;;13.71;100.00
42591;BME280;28218;53.342;-6.216;2023-04-30T06:04:31;101466.88;;;13.72;100.00
42591;BME280;28218;53.342;-6.216;2023-04-30T06:07:00;101465.72;;;13.74;100.00
42591;BME280;28218;53.342;-6.216;2023-04-30T06:09:28;101465.72;;;13.74;100.00
42591;BME280;28218;53.342;-6.216;2023-04-30T06:11:56;101475.31;;;13.75;100.00
42591;BME280;28218;53.342;-6.216;2023-04-30T06:14:25;101471.84;;;13.75;100.00
42591;BME280;28218;53.342;-6.216;2023-04-30T06:16:53;101481.44;;;13.76;100.00
42591;BME280;28218;53.342;-6.216;2023-04-30T06:19:23;101475.31;;;13.75;100.00
42591;BME280;28218;53.342;-6.216;2023-04-30T06:21:51;101471.66;;;13.76;100.00
42591;BME280;28218;53.342;-6.216;2023-04-30T06:24:19;101473.97;;;13.79;100.00
42591;BME280;28218;53.342;-6.216;2023-04-30T06:26:47;101480.59;;;13.84;100.00
42591;BME280;28218;53.342;-6.216;2023-04-30T06:29:15;101481.06;;;13.87;100.00
42591;BME280;28218;53.342;-6.216;2023-04-30T06:31:43;101489.66;;;13.89;100.00
42591;BME280;28218;53.342;-6.216;2023-04-30T06:34:12;101486.66;;;13.92;100.00
42591;BME280;28218;53.342;-6.216;2023-04-30T06:36:41;101491.00;;;13.93;100.00
42591;BME280;28218;53.342;-6.216;2023-04-30T06:39:11;101490.47;;;13.98;100.00
42591;BME280;28218;53.342;-6.216;2023-04-30T06:41:39;101484.16;;;13.99;100.00
42591;BME280;28218;53.342;-6.216;2023-04-30T06:44:07;101492.94;;;13.99;100.00
42591;BME280;28218;53.342;-6.216;2023-04-30T06:46:36;101492.75;;;14.01;100.00
42591;BME280;28218;53.342;-6.216;2023-04-30T06:49:04;101489.97;;;14.02;100.00
42591;BME280;28218;53.342;-6.216;2023-04-30T06:51:32;101490.28;;;14.07;100.00
42591;BME280;28218;53.342;-6.216;2023-04-30T06:54:02;101491.22;;;14.15;100.00
42591;BME280;28218;53.342;-6.216;2023-04-30T06:56:30;101489.88;;;14.19;100.00
42591;BME280;28218;53.342;-6.216;2023-04-30T06:58:58;101495.47;;;14.24;100.00
42591;BME280;28218;53.342;-6.216;2023-04-30T07:01:26;101496.59;;;14.29;100.00
42591;BME280;28218;53.342;-6.216;2023-04-30T07:03:55;101489.97;;;14.33;100.00
42591;BME280;28218;53.342;-6.216;2023-04-30T07:06:23;101488.44;;;14.39;100.00
42591;BME280;28218;53.342;-6.216;2023-04-30T07:08:51;101490.97;;;14.32;100.00
42591;BME280;28218;53.342;-6.216;2023-04-30T07:11:21;101490.25;;;14.39;100.00
42591;BME280;28218;53.342;-6.216;2023-04-30T07:13:49;101490.75;;;14.42;100.00
42591;BME280;28218;53.342;-6.216;2023-04-30T07:16:18;101488.91;;;14.51;100.00
42591;BME280;28218;53.342;-6.216;2023-04-30T07:18:46;101479.22;;;14.58;100.00
42591;BME280;28218;53.342;-6.216;2023-04-30T07:21:15;101473.34;;;14.71;100.00
42591;BME280;28218;53.342;-6.216;2023-04-30T07:23:43;101483.25;;;14.77;100.00
42591;BME280;28218;53.342;-6.216;2023-04-30T07:26:11;101478.91;;;14.84;100.00
42591;BME280;28218;53.342;-6.216;2023-04-30T07:28:41;101472.06;;;14.90;100.00
42591;BME280;28218;53.342;-6.216;2023-04-30T07:31:10;101471.41;;;14.88;100.00
42591;BME280;28218;53.342;-6.216;2023-04-30T07:33:38;101481.03;;;14.89;100.00
42591;BME280;28218;53.342;-6.216;2023-04-30T07:36:06;101476.19;;;14.92;100.00
42591;BME280;28218;53.342;-6.216;2023-04-30T07:38:34;101477.41;;;15.04;100.00
42591;BME280;28218;53.342;-6.216;2023-04-30T07:41:03;101474.50;;;15.14;100.00
42591;BME280;28218;53.342;-6.216;2023-04-30T07:43:32;101472.78;;;15.21;100.00
42591;BME280;28218;53.342;-6.216;2023-04-30T07:46:01;101474.84;;;15.34;100.00
42591;BME280;28218;53.342;-6.216;2023-04-30T07:48:30;101481.06;;;15.41;100.00
42591;BME280;28218;53.342;-6.216;2023-04-30T07:50:58;101482.06;;;15.40;100.00
42591;BME280;28218;53.342;-6.216;2023-04-30T07:53:26;101487.66;;;15.45;100.00
42591;BME280;28218;53.342;-6.216;2023-04-30T07:55:55;101477.31;;;15.50;100.00
42591;BME280;28218;53.342;-6.216;2023-04-30T07:58:23;101484.94;;;15.53;100.00
42591;BME280;28218;53.342;-6.216;2023-04-30T08:00:52;101480.78;;;15.51;100.00
42591;BME280;28218;53.342;-6.216;2023-04-30T08:03:21;101484.66;;;15.63;100.00
42591;BME280;28218;53.342;-6.216;2023-04-30T08:05:51;101484.56;;;15.71;100.00
42591;BME280;28218;53.342;-6.216;2023-04-30T08:08:19;101494.56;;;15.84;100.00
42591;BME280;28218;53.342;-6.216;2023-04-30T08:10:47;101489.91;;;15.86;100.00
42591;BME280;28218;53.342;-6.216;2023-04-30T08:13:16;101494.69;;;15.91;100.00
42591;BME280;28218;53.342;-6.216;2023-04-30T08:15:44;101491.47;;;15.95;100.00
42591;BME280;28218;53.342;-6.216;2023-04-30T08:18:12;101489.25;;;15.99;100.00
42591;BME280;28218;53.342;-6.216;2023-04-30T08:20:42;101494.47;;;15.92;100.00
42591;BME280;28218;53.342;-6.216;2023-04-30T08:23:10;101501.44;;;15.93;100.00
42591;BME280;28218;53.342;-6.216;2023-04-30T08:25:38;101502.25;;;15.94;100.00
42591;BME280;28218;53.342;-6.216;2023-04-30T08:28:06;101508.94;;;15.90;100.00
42591;BME280;28218;53.342;-6.216;2023-04-30T08:30:35;101508.69;;;15.84;100.00
42591;BME280;28218;53.342;-6.216;2023-04-30T08:33:03;101511.88;;;15.80;100.00
42591;BME280;28218;53.342;-6.216;2023-04-30T08:35:31;101519.31;;;15.84;100.00
42591;BME280;28218;53.342;-6.216;2023-04-30T08:38:01;101511.81;;;15.88;100.00
42591;BME280;28218;53.342;-6.216;2023-04-30T08:40:29;101521.06;;;15.92;100.00
42591;BME280;28218;53.342;-6.216;2023-04-30T08:43:17;101515.09;;;15.90;100.00
42591;BME280;28218;53.342;-6.216;2023-04-30T08:45:46;101524.00;;;15.97;100.00
42591;BME280;28218;53.342;-6.216;2023-04-30T08:48:15;101524.44;;;16.01;100.00
42591;BME280;28218;53.342;-6.216;2023-04-30T08:50:46;101530.78;;;16.15;100.00
42591;BME280;28218;53.342;-6.216;2023-04-30T08:53:16;101522.56;;;16.31;100.00
42591;BME280;28218;53.342;-6.216;2023-04-30T08:55:47;101528.88;;;16.45;100.00
42591;BME280;28218;53.342;-6.216;2023-04-30T08:58:15;101527.81;;;16.60;100.00
42591;BME280;28218;53.342;-6.216;2023-04-30T09:00:43;101523.84;;;16.71;100.00
42591;BME280;28218;53.342;-6.216;2023-04-30T09:03:12;101515.19;;;16.84;100.00
42591;BME280;28218;53.342;-6.216;2023-04-30T09:05:40;101520.66;;;16.97;100.00
42591;BME280;28218;53.342;-6.216;2023-04-30T09:08:09;101526.09;;;17.10;100.00
42591;BME280;28218;53.342;-6.216;2023-04-30T09:10:45;101518.03;;;17.25;100.00
42591;BME280;28218;53.342;-6.216;2023-04-30T09:13:13;101533.28;;;17.38;100.00
42591;BME280;28218;53.342;-6.216;2023-04-30T09:15:41;101533.75;;;17.42;100.00
42591;BME280;28218;53.342;-6.216;2023-04-30T09:18:13;101534.16;;;17.45;100.00
42591;BME280;28218;53.342;-6.216;2023-04-30T09:20:54;101543.25;;;17.51;100.00
42591;BME280;28218;53.342;-6.216;2023-04-30T09:23:22;101546.56;;;17.59;100.00
42591;BME280;28218;53.342;-6.216;2023-04-30T09:25:52;101545.41;;;17.69;100.00
42591;BME280;28218;53.342;-6.216;2023-04-30T09:28:22;101550.63;;;17.77;100.00
42591;BME280;28218;53.342;-6.216;2023-04-30T09:30:52;101553.50;;;17.82;100.00
42591;BME280;28218;53.342;-6.216;2023-04-30T09:33:21;101551.97;;;17.94;100.00
42591;BME280;28218;53.342;-6.216;2023-04-30T09:35:49;101543.63;;;18.10;100.00
42591;BME280;28218;53.342;-6.216;2023-04-30T09:38:28;101546.94;;;18.19;100.00
42591;BME280;28218;53.342;-6.216;2023-04-30T09:40:59;101551.09;;;18.22;100.00
42591;BME280;28218;53.342;-6.216;2023-04-30T09:43:27;101552.28;;;18.19;100.00
42591;BME280;28218;53.342;-6.216;2023-04-30T09:45:57;101562.88;;;18.06;100.00
42591;BME280;28218;53.342;-6.216;2023-04-30T09:48:26;101571.88;;;17.98;100.00
42591;BME280;28218;53.342;-6.216;2023-04-30T09:50:55;101578.84;;;17.93;100.00
42591;BME280;28218;53.342;-6.216;2023-04-30T09:53:23;101581.44;;;17.86;100.00
42591;BME280;28218;53.342;-6.216;2023-04-30T09:55:51;101589.81;;;17.83;100.00
42591;BME280;28218;53.342;-6.216;2023-04-30T09:58:27;101586.53;;;17.81;100.00
42591;BME280;28218;53.342;-6.216;2023-04-30T10:00:57;101588.97;;;17.76;100.00
42591;BME280;28218;53.342;-6.216;2023-04-30T10:03:27;101595.03;;;17.70;100.00
42591;BME280;28218;53.342;-6.216;2023-04-30T10:05:58;101600.25;;;17.56;100.00
42591;BME280;28218;53.342;-6.216;2023-04-30T10:08:29;101609.16;;;17.42;100.00
42591;BME280;28218;53.342;-6.216;2023-04-30T10:11:02;101611.06;;;17.27;100.00
42591;BME280;28218;53.342;-6.216;2023-04-30T10:13:34;101612.22;;;17.18;100.00
42591;BME280;28218;53.342;-6.216;2023-04-30T10:16:08;101609.00;;;17.07;100.00
42591;BME280;28218;53.342;-6.216;2023-04-30T10:18:41;101620.78;;;16.98;100.00
42591;BME280;28218;53.342;-6.216;2023-04-30T10:21:12;101613.25;;;17.02;100.00
42591;BME280;28218;53.342;-6.216;2023-04-30T10:23:43;101609.91;;;17.15;100.00
42591;BME280;28218;53.342;-6.216;2023-04-30T10:26:11;101606.56;;;17.27;100.00
42591;BME280;28218;53.342;-6.216;2023-04-30T10:28:41;101612.31;;;17.31;100.00
42591;BME280;28218;53.342;-6.216;2023-04-30T10:31:11;101619.94;;;17.34;100.00
42591;BME280;28218;53.342;-6.216;2023-04-30T10:33:45;101610.81;;;17.43;100.00
42591;BME280;28218;53.342;-6.216;2023-04-30T10:36:23;101610.09;;;17.56;100.00
42591;BME280;28218;53.342;-6.216;2023-04-30T10:38:53;101616.38;;;17.70;100.00
42591;BME280;28218;53.342;-6.216;2023-04-30T10:41:22;101614.00;;;17.81;100.00
42591;BME280;28218;53.342;-6.216;2023-04-30T10:43:56;101616.56;;;17.96;100.00
42591;BME280;28218;53.342;-6.216;2023-04-30T10:46:27;101616.75;;;17.88;100.00
42591;BME280;28218;53.342;-6.216;2023-04-30T10:48:56;101620.81;;;17.84;100.00
42591;BME280;28218;53.342;-6.216;2023-04-30T10:51:44;101625.66;;;17.74;100.00
42591;BME280;28218;53.342;-6.216;2023-04-30T10:54:14;101616.38;;;17.70;100.00
42591;BME280;28218;53.342;-6.216;2023-04-30T10:56:44;101621.63;;;17.63;100.00
42591;BME280;28218;53.342;-6.216;2023-04-30T10:59:15;101620.19;;;17.60;100.00
42591;BME280;28218;53.342;-6.216;2023-04-30T11:01:57;101617.06;;;17.57;100.00
42591;BME280;28218;53.342;-6.216;2023-04-30T11:04:26;101618.25;;;17.54;100.00
42591;BME280;28218;53.342;-6.216;2023-04-30T11:07:00;101614.59;;;17.55;100.00
42591;BME280;28218;53.342;-6.216;2023-04-30T11:09:38;101610.09;;;17.56;100.00
42591;BME280;28218;53.342;-6.216;2023-04-30T11:12:15;101605.19;;;17.59;100.00
42591;BME280;28218;53.342;-6.216;2023-04-30T11:14:49;101602.16;;;17.62;100.00
42591;BME280;28218;53.342;-6.216;2023-04-30T11:17:21;101601.38;;;17.69;100.00
42591;BME280;28218;53.342;-6.216;2023-04-30T11:19:51;101600.88;;;17.80;100.00
42591;BME280;28218;53.342;-6.216;2023-04-30T11:22:22;101598.91;;;17.88;100.00
42591;BME280;28218;53.342;-6.216;2023-04-30T11:24:51;101603.44;;;17.95;100.00
42591;BME280;28218;53.342;-6.216;2023-04-30T11:27:21;101599.81;;;18.02;100.00
42591;BME280;28218;53.342;-6.216;2023-04-30T11:29:52;101595.72;;;18.06;100.00
42591;BME280;28218;53.342;-6.216;2023-04-30T11:32:22;101597.13;;;18.02;100.00
42591;BME280;28218;53.342;-6.216;2023-04-30T11:34:53;101601.59;;;17.95;100.00
42591;BME280;28218;53.342;-6.216;2023-04-30T11:37:29;101597.44;;;17.86;100.00
42591;BME280;28218;53.342;-6.216;2023-04-30T11:40:00;101603.78;;;17.85;100.00
42591;BME280;28218;53.342;-6.216;2023-04-30T11:42:38;101589.78;;;17.76;100.00
42591;BME280;28218;53.342;-6.216;2023-04-30T11:45:14;101597.56;;;17.78;100.00
42591;BME280;28218;53.342;-6.216;2023-04-30T11:47:47;101587.00;;;17.91;100.00
42591;BME280;28218;53.342;-6.216;2023-04-30T11:50:18;101582.22;;;18.14;100.00
42591;BME280;28218;53.342;-6.216;2023-04-30T11:52:54;101581.25;;;18.29;100.00
42591;BME280;28218;53.342;-6.216;2023-04-30T11:55:24;101582.31;;;18.34;100.00
42591;BME280;28218;53.342;-6.216;2023-04-30T11:57:54;101594.66;;;18.35;100.00
42591;BME280;28218;53.342;-6.216;2023-04-30T12:00:27;101595.25;;;18.37;100.00
42591;BME280;28218;53.342;-6.216;2023-04-30T12:02:55;101606.31;;;18.28;100.00
42591;BME280;28218;53.342;-6.216;2023-04-30T12:05:25;101605.69;;;18.26;100.00
42591;BME280;28218;53.342;-6.216;2023-04-30T12:07:54;101605.41;;;18.14;100.00
42591;BME280;28218;53.342;-6.216;2023-04-30T12:10:24;101607.16;;;18.00;100.00
42591;BME280;28218;53.342;-6.216;2023-04-30T12:12:52;101604.34;;;17.74;100.00
42591;BME280;28218;53.342;-6.216;2023-04-30T12:15:23;101598.09;;;17.45;100.00
42591;BME280;28218;53.342;-6.216;2023-04-30T12:17:54;101595.69;;;17.07;100.00
42591;BME280;28218;53.342;-6.216;2023-04-30T12:20:24;101587.34;;;16.89;100.00
42591;BME280;28218;53.342;-6.216;2023-04-30T12:22:54;101580.84;;;16.77;100.00
42591;BME280;28218;53.342;-6.216;2023-04-30T12:25:22;101580.09;;;16.68;100.00
42591;BME280;28218;53.342;-6.216;2023-04-30T12:27:52;101573.69;;;16.63;100.00
42591;BME280;28218;53.342;-6.216;2023-04-30T12:30:22;101563.06;;;16.63;100.00
42591;BME280;28218;53.342;-6.216;2023-04-30T12:32:57;101570.69;;;16.66;100.00
42591;BME280;28218;53.342;-6.216;2023-04-30T12:35:27;101562.31;;;16.69;100.00
42591;BME280;28218;53.342;-6.216;2023-04-30T12:38:01;101560.94;;;16.73;100.00
42591;BME280;28218;53.342;-6.216;2023-04-30T12:40:30;101563.38;;;16.89;100.00
42591;BME280;28218;53.342;-6.216;2023-04-30T12:42:59;101551.84;;;17.03;100.00
42591;BME280;28218;53.342;-6.216;2023-04-30T12:45:47;101538.72;;;17.23;100.00